Time;durP1;ratioP1;P1;durP2;ratioP2;P2;SDS_P1;SDS_P2;PMS_P1;PMS_P2;Temp;Humidity;BMP_temperature;BMP_pressure;BME280_temperature;BME280_humidity;BME280_pressure;Samples;Min_cycle;Max_cycle;Signal;HPM_P1;HPM_P2
2023/06/03 00:00:20;;;;;;;15.02;6.97;;;12.20;99.90;;;;;;5028752;28;20687;-72
2023/06/03 00:02:47;;;;;;;13.90;7.68;;;12.20;99.90;;;;;;5039823;28;20029;-72
2023/06/03 00:05:17;;;;;;;21.08;7.95;;;12.10;99.90;;;;;;5006652;28;20145;-72
2023/06/03 00:07:43;;;;;;;;;;;12.00;99.90;;;;;;5009342;28;20092;-71
2023/06/03 00:10:09;;;;;;;17.50;7.45;;;12.00;99.90;;;;;;5008326;28;19936;-72
2023/06/03 00:12:35;;;;;;;15.73;7.38;;;11.90;99.90;;;;;;5027191;28;20129;-71
2023/06/03 00:15:00;;;;;;;15.02;7.35;;;11.90;99.90;;;;;;5027992;28;20056;-71
2023/06/03 00:17:27;;;;;;;15.63;7.28;;;11.80;99.90;;;;;;5027465;28;20030;-71
2023/06/03 00:19:54;;;;;;;17.63;7.80;;;11.70;99.90;;;;;;5028435;28;20028;-71
2023/06/03 00:22:21;;;;;;;32.90;8.55;;;11.60;99.90;;;;;;5026619;28;20017;-71
2023/06/03 00:24:47;;;;;;;18.70;8.35;;;11.60;99.90;;;;;;5028010;28;20069;-71
2023/06/03 00:27:13;;;;;;;14.35;7.47;;;11.50;99.90;;;;;;5027544;28;20033;-71
2023/06/03 00:29:39;;;;;;;17.58;7.88;;;11.40;99.90;;;;;;5028383;28;20109;-71
2023/06/03 00:32:05;;;;;;;18.02;8.20;;;11.30;99.90;;;;;;5014391;28;20603;-71
2023/06/03 00:34:30;;;;;;;14.90;7.45;;;11.20;99.90;;;;;;5008787;28;20036;-71
2023/06/03 00:36:56;;;;;;;16.73;7.78;;;11.20;99.90;;;;;;5008529;28;20026;-71
2023/06/03 00:39:22;;;;;;;19.80;7.78;;;11.10;99.90;;;;;;5019469;28;20037;-71
2023/06/03 00:41:48;;;;;;;18.27;8.13;;;11.10;99.90;;;;;;5028369;28;20088;-71
2023/06/03 00:44:14;;;;;;;20.40;8.45;;;11.00;99.90;;;;;;5027500;28;20037;-71
2023/06/03 00:46:41;;;;;;;18.02;8.40;;;11.00;99.90;;;;;;5028081;28;20112;-71
2023/06/03 00:49:07;;;;;;;16.63;7.85;;;10.90;99.90;;;;;;5028038;28;20383;-71
2023/06/03 00:51:33;;;;;;;15.70;7.85;;;10.90;99.90;;;;;;5028101;28;20029;-71
2023/06/03 00:53:59;;;;;;;19.15;7.68;;;10.90;99.90;;;;;;5026532;28;20040;-71
2023/06/03 00:56:26;;;;;;;16.58;7.85;;;10.90;99.90;;;;;;5026389;28;20045;-71
2023/06/03 00:58:52;;;;;;;18.08;8.07;;;11.00;99.90;;;;;;5027996;28;20038;-74
2023/06/03 01:01:19;;;;;;;18.63;7.53;;;11.00;99.90;;;;;;5025660;28;20033;-74
2023/06/03 01:03:47;;;;;;;13.50;7.50;;;11.00;99.90;;;;;;5044549;28;20026;-74
2023/06/03 01:06:45;;;;;;;19.48;7.78;;;10.90;99.90;;;;;;5023032;28;20033;-74
2023/06/03 01:09:32;;;;;;;15.75;7.57;;;10.90;99.90;;;;;;5010900;28;20486;-74
2023/06/03 01:12:54;;;;;;;23.00;6.75;;;11.00;99.90;;;;;;5031365;28;20731;-74
2023/06/03 01:15:27;;;;;;;16.92;7.03;;;11.00;99.90;;;;;;5010539;28;20097;-74
2023/06/03 01:17:57;;;;;;;16.38;7.15;;;11.00;99.90;;;;;;5016916;28;20479;-74
2023/06/03 01:20:26;;;;;;;18.70;7.28;;;11.10;99.90;;;;;;5030573;28;20280;-74
2023/06/03 01:22:57;;;;;;;17.60;7.20;;;11.00;99.90;;;;;;5045658;28;20036;-74
2023/06/03 01:25:23;;;;;;;18.13;7.10;;;11.10;99.90;;;;;;5047498;28;20628;-74
2023/06/03 01:27:49;;;;;;;18.65;7.00;;;11.10;99.90;;;;;;5019391;28;20041;-74
2023/06/03 01:30:20;;;;;;;17.52;6.65;;;11.10;99.90;;;;;;5016589;28;20032;-74
2023/06/03 01:32:48;;;;;;;21.88;7.93;;;11.10;99.90;;;;;;5041967;28;20390;-74
2023/06/03 01:35:14;;;;;;;19.25;7.38;;;11.10;99.90;;;;;;5030085;28;20169;-74
2023/06/03 01:37:40;;;;;;;20.63;8.13;;;10.90;99.90;;;;;;5046368;28;20030;-74
2023/06/03 01:40:07;;;;;;;18.33;7.78;;;10.80;99.90;;;;;;5046455;28;20029;-74
2023/06/03 01:42:34;;;;;;;14.48;7.13;;;10.80;99.90;;;;;;5049022;28;20021;-74
2023/06/03 01:45:02;;;;;;;24.73;7.97;;;10.80;99.90;;;;;;5028414;28;20474;-74
2023/06/03 01:47:28;;;;;;;19.90;7.75;;;10.80;99.90;;;;;;5030713;28;20033;-74
2023/06/03 01:49:54;;;;;;;16.58;7.70;;;10.80;99.90;;;;;;5029989;28;20497;-74
2023/06/03 01:52:20;;;;;;;19.08;7.70;;;10.80;99.90;;;;;;5029972;28;20038;-74
2023/06/03 01:54:46;;;;;;;18.63;7.68;;;10.80;99.90;;;;;;5024891;28;20057;-74
2023/06/03 01:57:12;;;;;;;16.92;7.40;;;10.70;99.90;;;;;;5027222;28;20034;-74
2023/06/03 01:59:37;;;;;;;15.55;7.18;;;10.70;99.90;;;;;;5010958;28;20026;-74
2023/06/03 02:02:03;;;;;;;16.63;7.85;;;10.70;99.90;;;;;;5010729;28;20748;-74
2023/06/03 02:04:29;;;;;;;17.88;7.13;;;10.70;99.90;;;;;;5010760;28;20029;-74
2023/06/03 02:06:59;;;;;;;20.92;7.22;;;10.70;99.90;;;;;;5009445;28;20033;-74
2023/06/03 02:09:27;;;;;;;17.88;7.22;;;10.70;99.90;;;;;;5010264;28;20156;-74
2023/06/03 02:11:57;;;;;;;17.45;7.18;;;10.70;99.90;;;;;;5009382;28;20033;-74
2023/06/03 02:14:23;;;;;;;21.75;7.78;;;10.80;99.90;;;;;;5035310;28;20486;-74
2023/06/03 02:16:49;;;;;;;14.13;6.82;;;10.80;99.90;;;;;;5029992;28;20424;-74
2023/06/03 02:19:19;;;;;;;16.15;7.10;;;10.90;99.90;;;;;;5030370;28;20038;-74
2023/06/03 02:21:45;;;;;;;15.88;6.53;;;10.90;99.90;;;;;;5030635;28;20129;-74
2023/06/03 02:24:15;;;;;;;22.75;6.88;;;11.00;99.90;;;;;;5029641;28;20381;-74
2023/06/03 02:26:50;;;;;;;17.15;6.85;;;11.10;99.90;;;;;;5031829;28;20049;-74
2023/06/03 02:29:25;;;;;;;18.33;7.10;;;11.10;99.90;;;;;;5021204;28;20382;-71
2023/06/03 02:31:52;;;;;;;16.90;6.25;;;11.10;99.90;;;;;;5015304;28;20029;-71
2023/06/03 02:34:18;;;;;;;16.88;6.90;;;11.20;99.90;;;;;;5026831;28;20549;-71
2023/06/03 02:36:44;;;;;;;21.70;6.97;;;11.20;99.90;;;;;;5043855;28;20037;-71
2023/06/03 02:39:14;;;;;;;17.13;6.63;;;11.20;99.90;;;;;;5029602;28;20030;-71
2023/06/03 02:41:42;;;;;;;20.88;6.72;;;11.10;99.90;;;;;;5012664;28;20129;-71
2023/06/03 02:44:08;;;;;;;18.55;6.75;;;11.10;99.90;;;;;;5019264;28;20034;-71
2023/06/03 02:46:36;;;;;;;16.33;6.90;;;11.00;99.90;;;;;;5018349;28;20115;-71
2023/06/03 02:49:04;;;;;;;15.50;7.13;;;11.00;99.90;;;;;;5029474;28;20099;-71
2023/06/03 02:51:30;;;;;;;19.17;6.97;;;11.00;99.90;;;;;;5030079;28;20026;-71
2023/06/03 02:53:56;;;;;;;23.40;7.00;;;11.00;99.90;;;;;;5026718;28;20037;-71
2023/06/03 02:56:22;;;;;;;17.05;7.05;;;10.90;99.90;;;;;;5017897;28;20038;-71
2023/06/03 02:58:48;;;;;;;23.15;7.47;;;10.90;99.90;;;;;;5021649;28;20029;-71
2023/06/03 03:01:14;;;;;;;22.58;6.93;;;10.90;99.90;;;;;;5031186;28;20080;-71
2023/06/03 03:03:40;;;;;;;25.55;7.28;;;10.90;99.90;;;;;;5029584;28;20065;-71
2023/06/03 03:06:08;;;;;;;17.33;7.03;;;10.90;99.90;;;;;;5026432;28;20090;-71
2023/06/03 03:08:34;;;;;;;17.33;7.00;;;10.90;99.90;;;;;;5026968;28;20125;-71
2023/06/03 03:11:00;;;;;;;15.35;7.03;;;10.90;99.90;;;;;;5017907;28;20526;-71
2023/06/03 03:13:25;;;;;;;18.85;7.10;;;10.80;99.90;;;;;;5035939;28;20040;-71
2023/06/03 03:15:51;;;;;;;16.00;7.47;;;10.90;99.90;;;;;;5025274;28;20385;-70
2023/06/03 03:18:17;;;;;;;15.05;6.88;;;10.80;99.90;;;;;;5027225;28;20549;-71
2023/06/03 03:20:43;;;;;;;19.42;7.22;;;10.80;99.90;;;;;;5019326;28;20034;-71
2023/06/03 03:23:12;;;;;;;16.13;6.75;;;10.80;99.90;;;;;;5017180;28;20542;-71
2023/06/03 03:25:38;;;;;;;21.15;7.07;;;10.80;99.90;;;;;;5014004;28;20053;-71
2023/06/03 03:28:03;;;;;;;18.60;6.97;;;10.80;99.90;;;;;;5009759;28;20037;-71
2023/06/03 03:30:29;;;;;;;16.25;7.70;;;10.70;99.90;;;;;;5020439;28;20104;-71
2023/06/03 03:32:58;;;;;;;14.52;6.55;;;10.70;99.90;;;;;;5027300;28;20053;-71
2023/06/03 03:35:25;;;;;;;20.40;7.05;;;10.60;99.90;;;;;;5023977;28;20037;-71
2023/06/03 03:38:05;;;;;;;19.85;7.18;;;10.60;99.90;;;;;;5033906;28;20656;-71
2023/06/03 03:40:32;;;;;;;15.90;7.60;;;10.60;99.90;;;;;;5020569;28;20038;-71
2023/06/03 03:42:59;;;;;;;20.35;7.65;;;10.60;99.90;;;;;;5011018;28;20454;-71
2023/06/03 03:45:36;;;;;;;18.30;7.65;;;10.60;99.90;;;;;;5026925;28;20036;-71
2023/06/03 03:48:06;;;;;;;16.85;6.93;;;10.60;99.90;;;;;;5009214;28;20076;-71
2023/06/03 03:50:48;;;;;;;;;;;10.60;99.90;;;;;;5011927;28;20627;-71
2023/06/03 03:53:19;;;;;;;17.05;7.47;;;10.60;99.90;;;;;;5027229;28;19940;-71
2023/06/03 03:55:53;;;;;;;16.42;6.78;;;10.50;99.90;;;;;;5027390;28;20052;-71
2023/06/03 03:58:35;;;;;;;18.02;7.22;;;10.60;99.90;;;;;;5026673;28;20044;-71
2023/06/03 04:01:09;;;;;;;14.93;6.40;;;10.60;99.90;;;;;;5027959;28;20033;-72
2023/06/03 04:03:40;;;;;;;14.13;6.88;;;10.70;99.90;;;;;;5026486;28;20128;-72
2023/06/03 04:06:09;;;;;;;17.52;6.70;;;10.70;99.90;;;;;;5028622;28;20474;-72
2023/06/03 04:08:38;;;;;;;14.67;6.97;;;10.80;99.90;;;;;;5038041;28;20032;-72
2023/06/03 04:11:05;;;;;;;18.45;6.82;;;10.80;99.90;;;;;;5033669;28;20037;-71
2023/06/03 04:13:36;;;;;;;20.52;7.85;;;10.90;99.90;;;;;;5044589;28;20091;-71
2023/06/03 04:16:06;;;;;;;21.98;6.85;;;11.00;99.90;;;;;;5048381;28;20051;-71
2023/06/03 04:18:33;;;;;;;18.05;6.28;;;11.00;99.90;;;;;;5047358;28;20640;-71
2023/06/03 04:21:00;;;;;;;17.35;6.70;;;11.00;99.90;;;;;;5048364;28;20063;-71
2023/06/03 04:23:27;;;;;;;16.55;6.45;;;11.00;99.90;;;;;;5042592;28;20035;-71
2023/06/03 04:25:53;;;;;;;19.88;6.93;;;11.10;99.90;;;;;;5009646;28;20065;-71
2023/06/03 04:28:19;;;;;;;19.98;7.13;;;11.10;99.90;;;;;;5011218;28;20132;-71
2023/06/03 04:30:45;;;;;;;13.93;6.40;;;11.20;99.90;;;;;;5027473;28;20525;-71
2023/06/03 04:33:10;;;;;;;15.27;6.70;;;11.30;99.90;;;;;;5024564;28;21466;-72
2023/06/03 04:35:36;;;;;;;18.67;7.38;;;11.40;99.90;;;;;;5014818;28;20493;-71
2023/06/03 04:38:02;;;;;;;19.88;7.22;;;11.40;99.90;;;;;;5031568;28;20111;-72
2023/06/03 04:40:27;;;;;;;14.85;6.20;;;11.50;99.90;;;;;;5030615;28;20033;-72
2023/06/03 04:42:54;;;;;;;21.17;7.43;;;11.60;99.90;;;;;;5028379;28;20029;-72
2023/06/03 04:45:23;;;;;;;22.15;7.13;;;11.70;99.90;;;;;;5015957;28;20029;-72
2023/06/03 04:47:53;;;;;;;15.13;6.95;;;11.70;99.90;;;;;;5015594;28;20030;-72
2023/06/03 04:50:24;;;;;;;14.60;6.73;;;11.80;99.90;;;;;;5015656;28;20068;-72
2023/06/03 04:52:51;;;;;;;17.10;6.95;;;11.90;99.90;;;;;;5021264;28;20362;-72
2023/06/03 04:55:16;;;;;;;17.05;6.03;;;12.00;99.90;;;;;;5026959;28;20052;-72
2023/06/03 04:57:45;;;;;;;19.23;6.85;;;12.20;99.90;;;;;;5028805;28;20029;-72
2023/06/03 05:00:14;;;;;;;19.35;7.10;;;12.30;99.90;;;;;;5022370;28;20034;-73
2023/06/03 05:02:44;;;;;;;14.45;6.53;;;12.50;99.90;;;;;;5025027;28;20485;-72
2023/06/03 05:05:10;;;;;;;12.30;6.13;;;12.60;99.90;;;;;;5051503;28;20466;-72
2023/06/03 05:07:37;;;;;;;23.00;7.18;;;12.50;99.90;;;;;;5035194;28;20045;-72
2023/06/03 05:10:03;;;;;;;22.67;6.90;;;12.60;99.90;;;;;;5011896;28;20032;-72
2023/06/03 05:12:29;;;;;;;16.33;6.65;;;12.70;99.90;;;;;;5020716;28;20029;-73
2023/06/03 05:14:55;;;;;;;16.30;6.72;;;12.70;99.90;;;;;;5025090;28;20091;-73
2023/06/03 05:17:21;;;;;;;15.57;6.05;;;12.80;99.90;;;;;;5030629;28;20030;-73
2023/06/03 05:19:47;;;;;;;13.90;6.55;;;12.90;99.90;;;;;;5031761;28;20025;-73
2023/06/03 05:22:16;;;;;;;16.65;6.03;;;13.10;99.90;;;;;;5036234;28;20468;-73
2023/06/03 05:24:41;;;;;;;12.65;6.70;;;13.10;99.90;;;;;;5049576;28;20033;-73
2023/06/03 05:27:07;;;;;;;18.65;7.03;;;13.10;99.90;;;;;;5036972;28;20030;-73
2023/06/03 05:29:35;;;;;;;19.08;6.93;;;13.20;99.90;;;;;;5009776;28;20760;-73
2023/06/03 05:32:00;;;;;;;14.65;6.85;;;13.30;99.90;;;;;;5027089;28;20183;-73
2023/06/03 05:34:26;;;;;;;19.33;6.65;;;13.20;99.90;;;;;;5035486;28;20606;-76
2023/06/03 05:36:51;;;;;;;17.63;7.63;;;13.30;99.90;;;;;;5019999;28;20029;-75
2023/06/03 05:39:17;;;;;;;16.02;6.72;;;13.40;99.90;;;;;;5030731;28;20371;-75
2023/06/03 05:41:43;;;;;;;13.85;6.20;;;13.60;99.90;;;;;;5030812;28;20140;-75
2023/06/03 05:44:08;;;;;;;17.13;7.07;;;13.80;99.90;;;;;;5036380;28;20155;-77
2023/06/03 05:46:34;;;;;;;13.20;6.15;;;13.90;99.90;;;;;;5029989;28;20113;-75
2023/06/03 05:49:00;;;;;;;13.63;6.13;;;14.00;99.90;;;;;;5025465;28;20038;-76
2023/06/03 05:51:25;;;;;;;14.85;7.22;;;14.10;99.90;;;;;;5031323;28;20021;-75
2023/06/03 05:53:51;;;;;;;18.95;6.63;;;14.10;99.90;;;;;;5042888;28;20359;-75
2023/06/03 05:56:16;;;;;;;12.35;5.75;;;14.20;99.90;;;;;;5035806;28;20378;-75
2023/06/03 05:58:43;;;;;;;13.60;5.97;;;14.40;99.90;;;;;;5031361;28;20037;-75
2023/06/03 06:01:09;;;;;;;15.80;6.53;;;14.60;99.90;;;;;;5028757;28;20030;-82
2023/06/03 06:03:35;;;;;;;14.75;6.00;;;14.70;99.90;;;;;;5029740;28;20033;-83
2023/06/03 06:06:01;;;;;;;19.17;6.47;;;14.80;99.90;;;;;;5020404;28;20041;-81
2023/06/03 06:08:27;;;;;;;13.55;5.68;;;14.90;99.90;;;;;;5025521;28;20030;-82
2023/06/03 06:10:53;;;;;;;15.02;6.85;;;15.00;99.90;;;;;;5030223;28;20025;-82
2023/06/03 06:13:18;;;;;;;18.35;6.00;;;15.10;99.90;;;;;;5030182;28;20044;-81
2023/06/03 06:15:58;;;;;;;12.15;5.95;;;15.20;99.90;;;;;;5029605;28;20401;-83
2023/06/03 06:18:24;;;;;;;12.45;5.82;;;15.20;99.90;;;;;;5029481;28;20034;-83
2023/06/03 06:20:50;;;;;;;12.07;6.05;;;15.10;99.90;;;;;;5030413;28;20044;-81
2023/06/03 06:23:16;;;;;;;13.48;5.80;;;15.30;99.90;;;;;;5024713;28;20454;-82
2023/06/03 06:25:49;;;;;;;13.50;6.18;;;15.40;99.90;;;;;;5009319;28;20034;-82
2023/06/03 06:28:19;;;;;;;15.88;5.85;;;15.40;99.90;;;;;;5026733;28;20036;-82
2023/06/03 06:30:45;;;;;;;15.93;6.00;;;15.50;99.90;;;;;;5028095;28;20034;-83
2023/06/03 06:33:14;;;;;;;13.20;5.80;;;15.50;99.90;;;;;;5029993;28;20493;-82
2023/06/03 06:35:39;;;;;;;17.35;6.03;;;15.70;99.90;;;;;;5024163;28;20112;-75
2023/06/03 06:38:05;;;;;;;18.42;5.68;;;15.90;99.90;;;;;;5010178;28;20173;-82
2023/06/03 06:40:34;;;;;;;14.23;6.00;;;16.00;99.90;;;;;;5027802;28;20021;-81
2023/06/03 06:43:00;;;;;;;18.13;5.97;;;16.30;99.90;;;;;;5025814;28;20156;-81
2023/06/03 06:45:31;;;;;;;15.85;5.22;;;16.50;99.90;;;;;;5020318;28;20489;-81
2023/06/03 06:48:03;;;;;;;16.08;6.15;;;16.70;99.90;;;;;;5018752;28;20544;-83
2023/06/03 06:50:42;;;;;;;11.80;5.53;;;17.00;99.90;;;;;;5040072;28;20089;-75
2023/06/03 06:53:08;;;;;;;11.88;5.88;;;17.00;99.90;;;;;;5031933;28;20033;-82
2023/06/03 06:55:37;;;;;;;14.85;6.53;;;17.10;99.90;;;;;;5027413;28;20457;-80
2023/06/03 06:58:02;;;;;;;21.10;6.82;;;16.80;99.90;;;;;;5008411;28;20033;-80
2023/06/03 07:00:28;;;;;;;15.82;6.95;;;16.90;99.90;;;;;;5023810;28;20037;-80
2023/06/03 07:02:55;;;;;;;12.57;6.47;;;17.10;99.90;;;;;;5026686;28;20037;-80
2023/06/03 07:05:20;;;;;;;20.05;6.97;;;17.30;99.90;;;;;;5047983;28;20432;-84
2023/06/03 07:07:48;;;;;;;12.30;6.82;;;17.40;99.90;;;;;;5046973;28;20104;-82
2023/06/03 07:10:20;;;;;;;18.35;7.13;;;17.50;99.90;;;;;;5049012;28;20021;-80
2023/06/03 07:12:46;;;;;;;14.32;6.97;;;17.70;99.90;;;;;;5048638;28;20087;-82
2023/06/03 07:15:12;;;;;;;16.25;6.68;;;17.90;99.90;;;;;;5049004;28;20040;-83
2023/06/03 07:17:40;;;;;;;17.58;7.20;;;18.00;99.90;;;;;;5043928;28;20048;-82
2023/06/03 07:20:06;;;;;;;17.48;7.70;;;18.00;99.90;;;;;;5045443;28;20025;-79
2023/06/03 07:22:32;;;;;;;17.30;6.20;;;18.00;99.90;;;;;;5026892;28;20028;-81
2023/06/03 07:24:58;;;;;;;11.82;6.28;;;18.00;99.90;;;;;;5028925;28;20041;-81
2023/06/03 07:27:31;;;;;;;17.48;7.15;;;18.10;99.90;;;;;;5027218;28;20124;-81
2023/06/03 07:29:57;;;;;;;15.45;6.45;;;18.10;99.90;;;;;;5028942;28;20524;-78
2023/06/03 07:32:26;;;;;;;20.00;6.78;;;18.20;99.90;;;;;;5027634;28;20037;-78
2023/06/03 07:34:52;;;;;;;19.02;6.85;;;18.00;99.90;;;;;;5028884;28;20063;-80
2023/06/03 07:37:18;;;;;;;17.77;7.20;;;18.10;99.90;;;;;;5028889;28;20025;-78
2023/06/03 07:39:44;;;;;;;17.45;7.25;;;18.40;99.90;;;;;;5028136;28;20115;-80
2023/06/03 07:42:20;;;;;;;18.50;7.22;;;18.50;99.90;;;;;;5042556;28;20029;-80
2023/06/03 07:44:48;;;;;;;15.80;6.78;;;18.60;99.90;;;;;;5027985;28;20096;-80
2023/06/03 07:47:15;;;;;;;18.48;7.68;;;18.70;99.90;;;;;;5027372;28;20026;-82
2023/06/03 07:49:48;;;;;;;14.70;7.50;;;18.60;99.90;;;;;;5026292;28;20022;-81
2023/06/03 07:52:19;;;;;;;17.92;7.47;;;18.70;99.90;;;;;;5028059;28;20094;-82
2023/06/03 07:54:45;;;;;;;15.25;6.40;;;18.90;99.90;;;;;;5007562;28;20056;-80
2023/06/03 07:57:13;;;;;;;15.55;6.72;;;19.00;99.90;;;;;;5008970;28;20108;-81
2023/06/03 07:59:48;;;;;;;11.80;6.18;;;19.20;99.90;;;;;;5007987;28;20066;-80
2023/06/03 08:02:13;;;;;;;15.60;7.28;;;19.20;99.90;;;;;;5024045;28;20141;-82
2023/06/03 08:04:39;;;;;;;17.85;6.85;;;19.40;99.90;;;;;;5044985;28;20100;-83
2023/06/03 08:07:06;;;;;;;17.52;6.70;;;19.50;99.90;;;;;;5048560;28;20021;-82
2023/06/03 08:09:36;;;;;;;18.20;7.65;;;19.60;99.90;;;;;;5047640;28;20021;-79
2023/06/03 08:12:07;;;;;;;20.50;7.22;;;19.80;99.90;;;;;;5048056;28;20029;-79
2023/06/03 08:14:35;;;;;;;20.23;7.20;;;19.80;99.90;;;;;;5049458;28;20045;-79
2023/06/03 08:17:08;;;;;;;14.30;7.63;;;19.70;99.90;;;;;;5052579;28;20440;-76
2023/06/03 08:19:34;;;;;;;14.43;6.93;;;19.60;99.90;;;;;;5051795;28;20493;-80
2023/06/03 08:22:00;;;;;;;25.95;7.68;;;19.60;99.90;;;;;;5052385;28;20110;-78
2023/06/03 08:24:26;;;;;;;15.27;7.05;;;19.70;99.90;;;;;;5050458;28;20029;-81
2023/06/03 08:26:51;;;;;;;15.68;7.30;;;19.80;99.90;;;;;;5051586;28;20645;-77
2023/06/03 08:29:17;;;;;;;12.75;6.72;;;20.10;99.90;;;;;;5067610;28;20040;-81
2023/06/03 08:31:43;;;;;;;15.75;7.57;;;20.10;99.60;;;;;;5066578;28;20036;-80
2023/06/03 08:34:08;;;;;;;13.02;7.22;;;19.90;99.90;;;;;;5039586;28;20061;-79
2023/06/03 08:36:35;;;;;;;18.77;7.00;;;20.00;99.90;;;;;;5031276;28;20038;-79
2023/06/03 08:39:01;;;;;;;15.32;7.18;;;20.00;99.90;;;;;;5032178;28;20457;-77
2023/06/03 08:41:37;;;;;;;14.70;7.13;;;20.10;99.90;;;;;;5031813;28;20116;-81
2023/06/03 08:44:21;;;;;;;21.77;7.13;;;20.30;99.90;;;;;;5041443;28;20108;-80
2023/06/03 08:47:13;;;;;;;12.82;6.78;;;20.50;99.30;;;;;;5066465;28;20350;-80
2023/06/03 08:50:02;;;;;;;15.98;7.03;;;20.60;99.90;;;;;;5050998;28;20036;-80
2023/06/03 08:52:33;;;;;;;15.25;7.60;;;20.80;99.00;;;;;;5051648;28;20020;-80
2023/06/03 08:55:00;;;;;;;13.80;7.32;;;20.90;99.20;;;;;;5049897;28;20068;-80
2023/06/03 08:57:31;;;;;;;17.83;7.03;;;21.00;98.90;;;;;;5051708;28;20025;-80
2023/06/03 08:59:58;;;;;;;16.00;7.50;;;21.00;99.00;;;;;;5051669;28;20414;-79
2023/06/03 09:02:24;;;;;;;15.38;6.88;;;21.10;98.30;;;;;;5051605;28;20037;-80
2023/06/03 09:04:52;;;;;;;19.05;7.38;;;21.10;98.00;;;;;;5064675;28;20029;-79
2023/06/03 09:07:20;;;;;;;14.25;7.07;;;21.20;98.80;;;;;;5051572;28;20406;-79
2023/06/03 09:09:50;;;;;;;16.30;6.72;;;21.20;99.10;;;;;;5050801;28;20021;-78
2023/06/03 09:12:16;;;;;;;13.82;6.50;;;21.40;98.40;;;;;;5051407;28;20047;-79
2023/06/03 09:14:44;;;;;;;16.50;7.05;;;21.60;97.60;;;;;;5032933;28;20033;-78
2023/06/03 09:17:10;;;;;;;18.88;8.10;;;21.70;97.50;;;;;;5030108;28;20029;-79
2023/06/03 09:19:37;;;;;;;17.02;7.70;;;22.00;97.70;;;;;;5030623;28;20389;-80
2023/06/03 09:22:03;;;;;;;15.90;8.27;;;22.20;98.80;;;;;;5031243;28;20025;-78
2023/06/03 09:24:28;;;;;;;15.40;7.15;;;22.30;95.60;;;;;;5041262;28;20508;-81
2023/06/03 09:26:54;;;;;;;15.55;7.65;;;22.20;96.10;;;;;;5066672;28;20032;-78
2023/06/03 09:29:20;;;;;;;17.50;7.65;;;22.20;96.00;;;;;;5051506;28;20111;-78
2023/06/03 09:31:48;;;;;;;16.50;7.18;;;22.40;95.50;;;;;;5049561;28;20132;-79
2023/06/03 09:34:15;;;;;;;18.27;7.38;;;22.30;97.00;;;;;;5049383;28;20033;-79
2023/06/03 09:36:46;;;;;;;14.27;7.65;;;22.40;95.50;;;;;;5050918;28;20108;-79
2023/06/03 09:39:16;;;;;;;14.55;7.85;;;22.30;95.20;;;;;;5051020;28;20128;-76
2023/06/03 09:41:42;;;;;;;17.13;7.60;;;22.10;95.30;;;;;;5065418;28;20033;-78
2023/06/03 09:44:10;;;;;;;20.70;8.02;;;21.90;95.20;;;;;;5041418;28;20489;-79
2023/06/03 09:46:36;;;;;;;17.60;8.25;;;22.10;95.00;;;;;;5030081;28;20048;-79
2023/06/03 09:49:12;;;;;;;14.95;7.28;;;22.00;95.30;;;;;;5033801;28;20051;-79
2023/06/03 09:51:46;;;;;;;18.48;7.95;;;22.30;95.50;;;;;;5050002;28;20328;-80
2023/06/03 09:54:17;;;;;;;14.57;7.32;;;22.40;94.20;;;;;;5050344;28;20045;-78
2023/06/03 09:56:46;;;;;;;15.27;7.40;;;22.50;94.50;;;;;;5065241;28;20029;-79
2023/06/03 09:59:21;;;;;;;15.75;7.70;;;22.70;94.70;;;;;;5048637;28;20497;-78
2023/06/03 10:01:48;;;;;;;20.10;7.93;;;22.90;93.80;;;;;;5049755;28;20021;-77
2023/06/03 10:04:22;;;;;;;14.13;7.78;;;22.80;93.90;;;;;;5065815;28;20037;-79
2023/06/03 10:07:09;;;;;;;16.13;7.97;;;22.70;92.70;;;;;;5065023;28;20033;-79
2023/06/03 10:09:35;;;;;;;11.75;7.05;;;22.50;93.30;;;;;;5047743;28;20040;-79
2023/06/03 10:12:02;;;;;;;15.73;7.88;;;22.70;94.20;;;;;;5050229;28;20500;-79
2023/06/03 10:14:27;;;;;;;13.98;7.68;;;22.90;92.70;;;;;;5050373;28;20052;-78
2023/06/03 10:17:03;;;;;;;14.82;7.80;;;23.00;92.70;;;;;;5048085;28;20029;-79
2023/06/03 10:19:31;;;;;;;20.25;7.78;;;23.00;92.40;;;;;;5063931;28;20035;-79
2023/06/03 10:21:57;;;;;;;18.52;7.95;;;23.20;92.10;;;;;;5049539;28;20029;-79
2023/06/03 10:24:27;;;;;;;15.93;7.40;;;23.30;92.70;;;;;;5049906;28;20485;-78
2023/06/03 10:26:54;;;;;;;18.40;7.70;;;23.80;92.70;;;;;;5049352;28;20705;-79
2023/06/03 10:29:20;;;;;;;16.17;7.53;;;24.10;90.70;;;;;;5043382;28;20768;-78
2023/06/03 10:31:49;;;;;;;12.55;7.60;;;24.10;90.70;;;;;;5029165;28;20045;-77
2023/06/03 10:34:16;;;;;;;18.45;8.02;;;24.00;90.50;;;;;;5029493;28;20035;-78
2023/06/03 10:36:43;;;;;;;15.98;7.80;;;23.70;90.00;;;;;;5028537;28;20072;-79
2023/06/03 10:39:12;;;;;;;16.88;7.70;;;23.40;90.30;;;;;;5027737;28;20025;-78
2023/06/03 10:41:43;;;;;;;24.50;8.02;;;23.30;91.00;;;;;;5029040;28;20079;-79
2023/06/03 10:44:08;;;;;;;14.25;7.53;;;23.40;90.10;;;;;;5029685;28;20033;-79
2023/06/03 10:46:37;;;;;;;17.67;7.25;;;23.50;90.70;;;;;;5029717;28;20044;-79
2023/06/03 10:49:06;;;;;;;17.88;8.07;;;23.50;90.90;;;;;;5026206;28;20129;-78
2023/06/03 10:52:02;;;;;;;20.42;7.18;;;23.80;89.50;;;;;;5024865;28;20088;-78
2023/06/03 10:54:51;;;;;;;15.38;7.47;;;23.60;88.40;;;;;;5029490;28;20058;-78
2023/06/03 10:57:21;;;;;;;15.88;7.65;;;23.60;90.20;;;;;;5024411;28;20401;-78
2023/06/03 10:59:47;;;;;;;15.43;7.50;;;23.90;89.40;;;;;;5025720;28;20025;-78
2023/06/03 11:02:13;;;;;;;19.30;7.43;;;23.80;88.50;;;;;;5026275;28;20033;-79
2023/06/03 11:04:39;;;;;;;11.73;6.90;;;23.30;89.30;;;;;;5014637;28;20034;-79
2023/06/03 11:07:26;;;;;;;16.70;7.38;;;23.30;91.20;;;;;;5019703;28;20534;-79
2023/06/03 11:09:54;;;;;;;12.63;7.30;;;23.40;89.80;;;;;;5023719;28;20048;-79
2023/06/03 11:12:20;;;;;;;17.27;7.20;;;23.10;90.30;;;;;;5019527;28;20022;-78
2023/06/03 11:14:48;;;;;;;15.20;7.50;;;22.90;89.80;;;;;;5009551;28;20037;-77
2023/06/03 11:17:21;;;;;;;11.60;7.22;;;23.00;90.20;;;;;;5009491;28;20566;-79
2023/06/03 11:19:51;;;;;;;14.05;7.20;;;23.60;90.30;;;;;;5022634;28;20490;-79
2023/06/03 11:22:29;;;;;;;19.95;7.40;;;24.20;88.10;;;;;;5029128;28;20021;-79
2023/06/03 11:25:02;;;;;;;16.50;7.88;;;24.60;85.00;;;;;;5043534;28;20041;-75
2023/06/03 11:27:29;;;;;;;14.52;8.00;;;24.50;84.30;;;;;;5039528;28;20025;-73
2023/06/03 11:29:57;;;;;;;15.40;6.78;;;24.50;84.60;;;;;;5024097;28;20125;-74
2023/06/03 11:32:31;;;;;;;15.30;7.65;;;24.50;85.30;;;;;;5024141;28;20057;-76
2023/06/03 11:35:27;;;;;;;14.85;7.18;;;24.50;81.10;;;;;;5019473;28;20056;-74
2023/06/03 11:37:53;;;;;;;15.90;7.57;;;24.40;82.90;;;;;;5024462;28;20029;-74
2023/06/03 11:40:20;;;;;;;11.90;7.25;;;24.50;82.90;;;;;;5027861;28;20037;-74
2023/06/03 11:42:46;;;;;;;12.40;7.45;;;24.70;85.50;;;;;;5041485;28;20108;-74
2023/06/03 11:45:30;;;;;;;21.30;7.55;;;25.10;87.10;;;;;;5044742;28;20536;-73
2023/06/03 11:48:05;;;;;;;14.15;7.25;;;25.60;83.10;;;;;;5047527;28;20029;-74
2023/06/03 11:50:48;;;;;;;16.02;7.32;;;25.40;78.00;;;;;;5058691;28;20052;-74
2023/06/03 11:53:36;;;;;;;13.27;7.40;;;25.40;79.50;;;;;;5048116;28;20485;-74
2023/06/03 11:56:08;;;;;;;14.00;7.55;;;25.40;81.10;;;;;;5062161;28;20060;-75
2023/06/03 11:58:36;;;;;;;18.05;7.10;;;25.40;76.20;;;;;;5046791;28;20064;-74
2023/06/03 12:01:16;;;;;;;12.80;7.10;;;25.20;78.60;;;;;;5047434;28;20493;-73
2023/06/03 12:03:56;;;;;;;12.52;7.07;;;25.40;80.10;;;;;;5047889;28;20037;-75
2023/06/03 12:06:21;;;;;;;14.10;6.83;;;25.60;78.50;;;;;;5061719;28;20037;-73
2023/06/03 12:08:47;;;;;;;12.38;6.82;;;25.40;78.50;;;;;;5047122;28;20055;-74
2023/06/03 12:11:27;;;;;;;13.70;6.85;;;25.40;74.80;;;;;;5048060;28;20029;-74
2023/06/03 12:13:53;;;;;;;13.98;7.05;;;25.40;76.50;;;;;;5044631;28;20024;-74
2023/06/03 12:16:45;;;;;;;17.00;7.50;;;25.50;76.20;;;;;;5048203;28;20037;-74
2023/06/03 12:19:11;;;;;;;14.98;6.93;;;25.60;78.30;;;;;;5035581;28;20041;-74
2023/06/03 12:21:37;;;;;;;11.82;7.15;;;25.20;76.80;;;;;;5027951;28;20398;-73
2023/06/03 12:24:10;;;;;;;12.00;7.20;;;24.30;77.80;;;;;;5033285;28;20029;-74
2023/06/03 12:26:40;;;;;;;16.95;6.97;;;24.40;82.60;;;;;;5048097;28;20048;-73
2023/06/03 12:29:11;;;;;;;13.77;7.15;;;25.10;77.90;;;;;;5047810;28;20025;-74
2023/06/03 12:31:36;;;;;;;;;;;25.40;74.90;;;;;;5042632;28;20048;-75
2023/06/03 12:34:03;;;;;;;15.65;6.88;;;25.90;75.80;;;;;;5027783;28;20550;-75
2023/06/03 12:36:46;;;;;;;14.07;6.80;;;26.30;78.40;;;;;;5019430;28;20037;-74
2023/06/03 12:39:12;;;;;;;11.38;6.85;;;26.00;71.60;;;;;;5025351;28;20041;-74
2023/06/03 12:41:37;;;;;;;16.25;7.07;;;25.90;71.80;;;;;;5013268;28;20612;-72
2023/06/03 12:44:04;;;;;;;14.43;6.63;;;25.80;73.40;;;;;;5014495;28;20029;-74
2023/06/03 12:46:30;;;;;;;13.85;6.57;;;25.70;73.20;;;;;;5024726;28;20106;-72